createdAt,value
2018-05-14T00:00:52.156Z,95989.48
2018-05-14T00:03:18.001Z,95990.59
2018-05-14T00:05:43.841Z,95989.52
2018-05-14T00:08:09.720Z,95986.20
2018-05-14T00:10:35.606Z,95991.95
2018-05-14T00:13:01.475Z,95990.84
2018-05-14T00:15:28.304Z,95991.05
2018-05-14T00:17:54.140Z,95988.74
2018-05-14T00:20:20.042Z,95996.03
2018-05-14T00:22:45.881Z,95987.61
2018-05-14T00:25:11.729Z,95996.73
2018-05-14T00:27:37.556Z,95997.89
2018-05-14T00:30:03.600Z,95998.87
2018-05-14T00:32:29.472Z,95999.42
2018-05-14T00:34:55.340Z,95997.67
2018-05-14T00:37:21.197Z,95991.81
2018-05-14T00:39:47.017Z,95992.58
2018-05-14T00:42:12.851Z,95994.84
2018-05-14T00:44:38.717Z,95997.32
2018-05-14T00:47:04.608Z,95994.81
2018-05-14T00:49:30.550Z,95999.08
2018-05-14T00:51:56.351Z,96002.70
2018-05-14T00:54:22.166Z,96004.27
2018-05-14T00:56:47.976Z,95996.80
2018-05-14T00:59:13.829Z,96003.31
2018-05-14T01:01:39.646Z,96001.20
2018-05-14T01:04:05.535Z,96002.94
2018-05-14T01:06:31.491Z,96004.83
2018-05-14T01:08:57.255Z,96001.26
2018-05-14T01:11:23.109Z,96010.41
2018-05-14T01:13:48.929Z,96012.16
2018-05-14T01:16:14.811Z,96008.72
2018-05-14T01:18:40.673Z,96011.06
2018-05-14T01:21:06.581Z,96012.23
2018-05-14T01:23:32.397Z,96010.69
2018-05-14T01:25:58.272Z,96010.34
2018-05-14T01:28:24.120Z,96018.17
2018-05-14T01:30:49.962Z,96012.45
2018-05-14T01:33:15.819Z,96019.91
2018-05-14T01:35:41.668Z,96009.58
2018-05-14T01:38:07.524Z,96015.12
2018-05-14T01:40:33.388Z,96003.44
2018-05-14T01:42:59.209Z,96007.67
2018-05-14T01:45:25.026Z,96008.98
2018-05-14T01:47:50.860Z,96011.27
2018-05-14T01:50:16.679Z,96003.61
2018-05-14T01:52:42.498Z,96002.89
2018-05-14T01:55:08.357Z,96001.55
2018-05-14T01:57:34.209Z,96003.06
2018-05-14T02:00:00.081Z,96005.33
2018-05-14T02:02:25.973Z,96003.58
2018-05-14T02:04:54.354Z,95992.89
2018-05-14T02:07:20.229Z,95997.85
2018-05-14T02:09:46.096Z,96001.31
2018-05-14T02:12:11.948Z,96000.36
2018-05-14T02:14:38.677Z,95998.26
2018-05-14T02:17:04.530Z,95999.08
2018-05-14T02:19:30.369Z,96003.84
2018-05-14T02:21:56.248Z,95998.06
2018-05-14T02:24:22.152Z,95997.30
2018-05-14T02:26:47.991Z,96003.61
2018-05-14T02:29:13.865Z,96002.62
2018-05-14T02:31:39.720Z,95996.10
2018-05-14T02:34:05.582Z,95998.02
2018-05-14T02:36:31.453Z,95997.63
2018-05-14T02:38:57.296Z,95990.53
2018-05-14T02:41:23.159Z,95987.32
2018-05-14T02:43:49.023Z,95994.01
2018-05-14T02:46:14.923Z,95992.86
2018-05-14T02:48:40.747Z,95998.40
2018-05-14T02:51:06.617Z,95997.83
2018-05-14T02:53:32.474Z,95996.10
2018-05-14T02:55:58.328Z,95996.45
2018-05-14T02:58:24.200Z,95993.23
2018-05-14T03:00:50.076Z,95997.83
2018-05-14T03:03:15.976Z,95999.73
2018-05-14T03:05:41.820Z,95995.91
2018-05-14T03:08:07.680Z,95998.20
2018-05-14T03:10:33.563Z,95996.87
2018-05-14T03:12:59.386Z,96000.84
2018-05-14T03:15:25.265Z,95998.78
2018-05-14T03:17:51.105Z,95995.53
2018-05-14T03:20:16.943Z,96000.30
2018-05-14T03:22:42.816Z,96006.95
2018-05-14T03:25:08.649Z,96000.65
2018-05-14T03:27:34.493Z,96005.61
2018-05-14T03:30:00.360Z,95992.59
2018-05-14T03:32:26.189Z,96002.75
2018-05-14T03:34:52.037Z,96002.75
2018-05-14T03:37:17.881Z,95996.78
2018-05-14T03:39:43.752Z,95994.69
2018-05-14T03:42:09.624Z,96003.98
2018-05-14T03:44:35.525Z,96003.55
2018-05-14T03:47:01.373Z,96006.61
2018-05-14T03:49:27.236Z,96005.46
2018-05-14T03:51:53.085Z,96006.22
2018-05-14T03:54:18.929Z,96012.33
2018-05-14T03:56:44.780Z,96008.52
2018-05-14T03:59:22.969Z,96012.76
2018-05-14T04:02:13.937Z,96015.39
2018-05-14T04:04:52.085Z,96014.53
2018-05-14T04:07:17.946Z,96016.59
2018-05-14T04:09:43.780Z,96014.68
2018-05-14T04:12:10.457Z,96014.54
2018-05-14T04:14:36.341Z,96014.53
2018-05-14T04:17:02.189Z,96019.16
2018-05-14T04:19:29.054Z,96011.30
2018-05-14T04:21:55.088Z,96020.26
2018-05-14T04:24:21.030Z,96021.98
2018-05-14T04:26:46.804Z,96022.37
2018-05-14T04:29:12.638Z,96022.93
2018-05-14T04:31:38.523Z,96025.80
2018-05-14T04:34:04.387Z,96027.75
2018-05-14T04:36:30.252Z,96027.38
2018-05-14T04:38:56.100Z,96029.44
2018-05-14T04:41:21.991Z,96032.53
2018-05-14T04:43:47.823Z,96028.13
2018-05-14T04:46:13.677Z,96029.33
2018-05-14T04:48:39.525Z,96028.33
2018-05-14T04:51:05.391Z,96032.16
2018-05-14T04:53:31.264Z,96023.41
2018-05-14T04:55:57.135Z,96036.34
2018-05-14T04:58:23.017Z,96030.81
2018-05-14T05:00:48.930Z,96035.02
2018-05-14T05:03:14.825Z,96030.28
2018-05-14T05:05:40.693Z,96030.09
2018-05-14T05:08:06.537Z,96038.72
2018-05-14T05:10:32.472Z,96036.55
2018-05-14T05:12:58.259Z,96037.53
2018-05-14T05:15:24.116Z,96038.30
2018-05-14T05:17:49.969Z,96042.12
2018-05-14T05:20:15.816Z,96043.96
2018-05-14T05:22:41.649Z,96041.69
2018-05-14T05:25:07.557Z,96040.56
2018-05-14T05:27:33.438Z,96030.59
2018-05-14T05:29:59.252Z,96037.69
2018-05-14T05:32:25.089Z,96042.86
2018-05-14T05:34:50.942Z,96036.16
2018-05-14T05:37:16.808Z,96054.50
2018-05-14T05:39:42.645Z,96046.30
2018-05-14T05:42:08.497Z,96050.50
2018-05-14T05:44:34.354Z,96059.09
2018-05-14T05:47:00.221Z,96048.76
2018-05-14T05:49:26.084Z,96060.98
2018-05-14T05:51:51.942Z,96055.61
2018-05-14T05:54:17.782Z,96055.72
2018-05-14T05:56:43.641Z,96067.19
2018-05-14T05:59:09.465Z,96057.52
2018-05-14T06:01:35.312Z,96069.63
2018-05-14T06:04:01.168Z,96071.83
2018-05-14T06:06:27.009Z,96069.44
2018-05-14T06:08:52.876Z,96062.17
2018-05-14T06:11:18.737Z,96075.73
2018-05-14T06:13:44.601Z,96069.63
2018-05-14T06:16:10.424Z,96062.44
2018-05-14T06:18:36.272Z,96061.87
2018-05-14T06:21:02.113Z,96070.50
2018-05-14T06:23:27.961Z,96058.63
2018-05-14T06:25:53.852Z,96065.04
2018-05-14T06:28:19.659Z,96072.66
2018-05-14T06:30:45.516Z,96072.81
2018-05-14T06:33:11.336Z,96074.34
2018-05-14T06:35:37.267Z,96067.77
2018-05-14T06:38:03.097Z,96071.33
2018-05-14T06:40:28.972Z,96074.42
2018-05-14T06:42:54.837Z,96072.91
2018-05-14T06:45:20.734Z,96079.56
2018-05-14T06:47:46.577Z,96075.98
2018-05-14T06:50:12.393Z,96081.77
2018-05-14T06:52:38.228Z,96085.56
2018-05-14T06:55:04.215Z,96082.09
2018-05-14T06:57:30.002Z,96085.73
2018-05-14T06:59:55.839Z,96089.15
2018-05-14T07:02:21.688Z,96085.39
2018-05-14T07:04:47.546Z,96088.95
2018-05-14T07:07:13.416Z,96089.73
2018-05-14T07:09:39.268Z,96094.47
2018-05-14T07:12:05.184Z,96089.48
2018-05-14T07:14:31.017Z,96095.52
2018-05-14T07:16:56.856Z,96089.52
2018-05-14T07:19:22.738Z,96099.85
2018-05-14T07:21:48.580Z,96095.34
2018-05-14T07:24:14.429Z,96101.11
2018-05-14T07:26:40.393Z,96096.49
2018-05-14T07:29:06.120Z,96101.88
2018-05-14T07:31:31.957Z,96106.95
2018-05-14T07:33:57.836Z,96111.36
2018-05-14T07:36:23.710Z,96102.73
2018-05-14T07:38:49.555Z,96107.72
2018-05-14T07:41:15.404Z,96098.67
2018-05-14T07:43:41.302Z,96098.64
2018-05-14T07:46:07.171Z,96103.63
2018-05-14T07:48:32.965Z,96098.63
2018-05-14T07:50:58.813Z,96099.89
2018-05-14T07:53:24.674Z,96105.45
2018-05-14T07:55:50.537Z,96110.88
2018-05-14T07:58:16.402Z,96102.23
2018-05-14T08:00:42.276Z,96091.07
2018-05-14T08:03:08.136Z,96102.14
2018-05-14T08:05:34.054Z,96115.78
2018-05-14T08:07:59.897Z,96109.95
2018-05-14T08:10:25.758Z,96116.56
2018-05-14T08:12:51.585Z,96114.52
2018-05-14T08:15:17.421Z,96114.58
2018-05-14T08:17:43.258Z,96113.83
2018-05-14T08:20:09.160Z,96107.78
2018-05-14T08:22:35.056Z,96105.70
2018-05-14T08:25:00.884Z,96116.92
2018-05-14T08:27:26.710Z,96110.00
2018-05-14T08:29:52.553Z,96110.95
2018-05-14T08:32:18.417Z,96109.89
2018-05-14T08:34:44.261Z,96101.72
2018-05-14T08:37:10.168Z,96106.41
2018-05-14T08:39:35.992Z,96102.44
2018-05-14T08:42:01.884Z,96107.65
2018-05-14T08:44:27.759Z,96108.39
2018-05-14T08:46:53.624Z,96105.81
2018-05-14T08:49:19.476Z,96110.28
2018-05-14T08:51:45.354Z,96110.31
2018-05-14T08:54:11.246Z,96106.84
2018-05-14T08:56:37.033Z,96101.15
2018-05-14T08:59:02.889Z,96110.52
2018-05-14T09:01:28.772Z,96099.64
2018-05-14T09:03:54.622Z,96093.41
2018-05-14T09:06:20.475Z,96105.81
2018-05-14T09:08:46.397Z,96097.45
2018-05-14T09:11:12.185Z,96103.58
2018-05-14T09:13:38.040Z,96100.94
2018-05-14T09:16:03.948Z,96092.34
2018-05-14T09:18:29.816Z,96107.47
2018-05-14T09:20:55.697Z,96107.09
2018-05-14T09:23:21.577Z,96104.95
2018-05-14T09:25:47.432Z,96113.16
2018-05-14T09:28:13.283Z,96107.39
2018-05-14T09:30:39.112Z,96116.77
2018-05-14T09:33:04.995Z,96118.23
2018-05-14T09:35:30.847Z,96120.53
2018-05-14T09:37:56.681Z,96114.81
2018-05-14T09:40:22.542Z,96118.20
2018-05-14T09:42:48.384Z,96112.88
2018-05-14T09:45:14.269Z,96121.29
2018-05-14T09:47:40.126Z,96111.92
2018-05-14T09:50:06.000Z,96119.48
2018-05-14T09:52:31.843Z,96122.79
2018-05-14T09:54:57.690Z,96123.25
2018-05-14T09:57:23.647Z,96126.83
2018-05-14T09:59:49.448Z,96126.31
2018-05-14T10:02:15.309Z,96126.45
2018-05-14T10:04:41.173Z,96121.98
2018-05-14T10:07:07.010Z,96119.41
2018-05-14T10:09:32.884Z,96118.97
2018-05-14T10:11:58.748Z,96122.70
2018-05-14T10:14:24.574Z,96122.95
2018-05-14T10:16:50.472Z,96130.58
2018-05-14T10:19:16.332Z,96133.40
2018-05-14T10:21:42.244Z,96123.47
2018-05-14T10:24:08.185Z,96114.96
2018-05-14T10:26:34.071Z,96129.81
2018-05-14T10:28:59.929Z,96122.89
2018-05-14T10:31:25.784Z,96115.45
2018-05-14T10:33:51.651Z,96115.16
2018-05-14T10:36:17.504Z,96113.97
2018-05-14T10:38:43.378Z,96112.03
2018-05-14T10:41:09.227Z,96115.86
2018-05-14T10:43:35.097Z,96119.16
2018-05-14T10:46:00.961Z,96112.41
2018-05-14T10:48:26.801Z,96114.57
2018-05-14T10:50:52.642Z,96096.97
2018-05-14T10:53:18.453Z,96097.33
2018-05-14T10:55:44.316Z,96106.78
2018-05-14T10:58:10.176Z,96105.23
2018-05-14T11:00:36.036Z,96075.94
2018-05-14T11:03:01.894Z,96092.48
2018-05-14T11:05:27.746Z,96101.35
2018-05-14T11:07:53.590Z,96089.99
2018-05-14T11:10:19.480Z,96105.30
2018-05-14T11:12:45.375Z,96090.49
2018-05-14T11:15:11.212Z,96104.13
2018-05-14T11:17:37.085Z,96097.98
2018-05-14T11:20:02.948Z,96109.05
2018-05-14T11:22:28.869Z,96107.31
2018-05-14T11:24:54.726Z,96100.04
2018-05-14T11:27:20.583Z,96101.95
2018-05-14T11:29:46.437Z,96102.46
2018-05-14T11:32:12.338Z,96109.53
2018-05-14T11:34:38.251Z,96100.80
2018-05-14T11:37:04.128Z,96107.24
2018-05-14T11:39:29.970Z,96100.54
2018-05-14T11:41:55.820Z,96097.06
2018-05-14T11:44:21.690Z,96090.14
2018-05-14T11:46:47.544Z,96086.78
2018-05-14T11:49:13.420Z,96087.88
2018-05-14T11:51:39.312Z,96088.92
2018-05-14T11:54:05.169Z,96084.47
2018-05-14T11:56:30.977Z,96086.88
2018-05-14T11:58:56.860Z,96092.27
2018-05-14T12:01:22.709Z,96071.83
2018-05-14T12:03:48.540Z,96080.59
2018-05-14T12:06:14.413Z,96074.93
2018-05-14T12:08:40.273Z,96073.61
2018-05-14T12:11:06.133Z,96082.17
2018-05-14T12:13:31.993Z,96070.72
2018-05-14T12:15:57.968Z,96070.84
2018-05-14T12:18:23.724Z,96071.42
2018-05-14T12:20:49.617Z,96073.94
2018-05-14T12:23:15.485Z,96079.17
2018-05-14T12:25:41.384Z,96067.86
2018-05-14T12:28:07.248Z,96077.00
2018-05-14T12:30:33.104Z,96077.47
2018-05-14T12:32:58.938Z,96079.05
2018-05-14T12:35:24.782Z,96083.36
2018-05-14T12:37:50.653Z,96073.55
2018-05-14T12:40:16.518Z,96068.16
2018-05-14T12:42:42.353Z,96080.15
2018-05-14T12:45:08.193Z,96067.63
2018-05-14T12:47:34.017Z,96059.72
2018-05-14T12:49:59.835Z,96068.42
2018-05-14T12:52:25.712Z,96061.92
2018-05-14T12:54:51.573Z,96066.97
2018-05-14T12:57:17.440Z,96068.55
2018-05-14T12:59:43.270Z,96063.67
2018-05-14T13:02:09.172Z,96065.73
2018-05-14T13:04:35.040Z,96063.91
2018-05-14T13:07:00.959Z,96061.77
2018-05-14T13:09:26.800Z,96055.98
2018-05-14T13:11:52.667Z,96062.61
2018-05-14T13:14:18.574Z,96058.84
2018-05-14T13:16:44.443Z,96055.66
2018-05-14T13:19:10.390Z,96061.23
2018-05-14T13:21:36.217Z,96051.38
2018-05-14T13:24:02.070Z,96044.84
2018-05-14T13:26:27.950Z,96050.97
2018-05-14T13:28:53.801Z,96046.58
2018-05-14T13:31:19.671Z,96047.20
2018-05-14T13:33:45.516Z,96046.62
2018-05-14T13:36:11.444Z,96044.53
2018-05-14T13:38:37.300Z,96034.59
2018-05-14T13:41:03.273Z,96050.37
2018-05-14T13:43:29.138Z,96050.72
2018-05-14T13:45:54.997Z,96053.65
2018-05-14T13:48:20.834Z,96062.16
2018-05-14T13:50:46.701Z,96062.10
2018-05-14T13:53:12.569Z,96064.72
2018-05-14T13:55:38.418Z,96062.31
2018-05-14T13:58:04.278Z,96066.77
2018-05-14T14:00:30.130Z,96056.59
2018-05-14T14:02:55.973Z,96055.77
2018-05-14T14:05:21.816Z,96049.28
2018-05-14T14:07:48.477Z,96052.52
2018-05-14T14:10:14.321Z,96059.85
2018-05-14T14:12:40.192Z,96058.20
2018-05-14T14:15:06.047Z,96058.76
2018-05-14T14:17:31.893Z,96058.21
2018-05-14T14:19:57.777Z,96057.91
2018-05-14T14:22:23.688Z,96057.01
2018-05-14T14:24:49.545Z,96057.05
2018-05-14T14:27:15.413Z,96054.61
2018-05-14T14:29:41.957Z,96051.36
2018-05-14T14:32:07.965Z,96057.50
2018-05-14T14:34:33.832Z,96057.89
2018-05-14T14:36:59.719Z,96056.70
2018-05-14T14:39:25.581Z,96055.54
2018-05-14T14:41:51.444Z,96059.61
2018-05-14T14:44:17.308Z,96064.44
2018-05-14T14:46:43.176Z,96056.45
2018-05-14T14:49:09.011Z,96059.16
2018-05-14T14:51:34.845Z,96063.02
2018-05-14T14:54:00.706Z,96053.57
2018-05-14T14:56:26.557Z,96065.69
2018-05-14T14:58:53.453Z,96068.98
2018-05-14T15:01:19.339Z,96068.55
2018-05-14T15:03:45.230Z,96067.56
2018-05-14T15:06:11.117Z,96065.84
2018-05-14T15:08:37.005Z,96062.51
2018-05-14T15:11:02.887Z,96061.80
2018-05-14T15:13:28.801Z,96064.11
2018-05-14T15:15:54.701Z,96073.77
2018-05-14T15:18:20.573Z,96063.02
2018-05-14T15:20:46.417Z,96058.39
2018-05-14T15:23:12.309Z,96064.19
2018-05-14T15:25:38.187Z,96065.61
2018-05-14T15:28:04.061Z,96060.73
2018-05-14T15:30:29.897Z,96055.63
2018-05-14T15:32:55.823Z,96055.75
2018-05-14T15:35:21.710Z,96058.59
2018-05-14T15:37:47.609Z,96056.12
2018-05-14T15:40:13.550Z,96051.81
2018-05-14T15:42:39.394Z,96055.75
2018-05-14T15:45:05.320Z,96051.00
2018-05-14T15:47:31.155Z,96049.88
2018-05-14T15:49:57.066Z,96047.05
2018-05-14T15:52:22.952Z,96053.54
2018-05-14T15:54:48.849Z,96056.36
2018-05-14T15:57:14.748Z,96052.36
2018-05-14T15:59:40.636Z,96057.36
2018-05-14T16:02:06.509Z,96057.55
2018-05-14T16:04:32.379Z,96052.36
2018-05-14T16:06:58.271Z,96061.89
2018-05-14T16:09:24.171Z,96060.81
2018-05-14T16:11:50.036Z,96058.03
2018-05-14T16:14:15.904Z,96060.13
2018-05-14T16:16:41.816Z,96060.03
2018-05-14T16:19:07.710Z,96057.55
2018-05-14T16:21:33.599Z,96066.71
2018-05-14T16:23:59.460Z,96065.01
2018-05-14T16:26:25.407Z,96062.75
2018-05-14T16:28:51.295Z,96070.00
2018-05-14T16:31:17.184Z,96057.81
2018-05-14T16:33:43.081Z,96069.72
2018-05-14T16:36:08.992Z,96065.02
2018-05-14T16:38:34.912Z,96064.86
2018-05-14T16:41:00.824Z,96060.77
2018-05-14T16:43:26.698Z,96058.03
2018-05-14T16:45:52.708Z,96066.72
2018-05-14T16:48:18.569Z,96070.08
2018-05-14T16:50:45.098Z,96071.47
2018-05-14T16:53:10.975Z,96069.66
2018-05-14T16:55:36.816Z,96069.61
2018-05-14T16:58:02.706Z,96070.55
2018-05-14T17:00:28.545Z,96076.76
2018-05-14T17:02:54.389Z,96067.47
2018-05-14T17:05:20.272Z,96077.50
2018-05-14T17:07:46.153Z,96079.36
2018-05-14T17:10:12.049Z,96084.31
2018-05-14T17:12:37.909Z,96073.34
2018-05-14T17:15:03.847Z,96086.25
2018-05-14T17:17:29.749Z,96088.64
2018-05-14T17:19:55.661Z,96097.64
2018-05-14T17:22:21.516Z,96101.36
2018-05-14T17:24:47.398Z,96112.25
2018-05-14T17:27:13.238Z,96110.10
2018-05-14T17:29:39.121Z,96112.45
2018-05-14T17:32:04.969Z,96115.38
2018-05-14T17:34:30.842Z,96114.58
2018-05-14T17:36:56.717Z,96120.56
2018-05-14T17:39:22.625Z,96121.36
2018-05-14T17:41:48.523Z,96137.91
2018-05-14T17:46:47.166Z,96131.52
2018-05-14T17:49:13.094Z,96136.98
2018-05-14T17:51:38.977Z,96154.42
2018-05-14T17:54:04.921Z,96153.67
2018-05-14T17:56:30.816Z,96161.95
2018-05-14T17:59:03.569Z,96166.72
2018-05-14T18:01:29.412Z,96167.02
2018-05-14T18:03:55.284Z,96178.80
2018-05-14T18:06:21.188Z,96180.13
2018-05-14T18:08:47.109Z,96177.19
2018-05-14T18:11:13.059Z,96184.26
2018-05-14T18:13:38.989Z,96188.11
2018-05-14T18:16:04.883Z,96194.85
2018-05-14T18:18:30.759Z,96195.81
2018-05-14T18:20:59.659Z,96195.92
2018-05-14T18:23:25.583Z,96200.95
2018-05-14T18:25:54.365Z,96196.47
2018-05-14T18:28:20.269Z,96204.38
2018-05-14T18:30:46.237Z,96208.98
2018-05-14T18:33:12.145Z,96209.80
2018-05-14T18:38:33.868Z,96216.75
2018-05-14T18:40:59.718Z,96214.66
2018-05-14T18:43:25.609Z,96216.80
2018-05-14T18:45:51.612Z,96204.38
2018-05-14T18:48:17.542Z,96221.98
2018-05-14T18:50:43.396Z,96220.70
2018-05-14T18:53:09.341Z,96237.01
2018-05-14T18:55:35.250Z,96227.27
2018-05-14T18:58:01.125Z,96241.81
2018-05-14T19:00:27.020Z,96244.67
2018-05-14T19:02:52.909Z,96246.58
2018-05-14T19:05:18.839Z,96248.70
2018-05-14T19:07:44.711Z,96255.23
2018-05-14T19:10:16.676Z,96253.32
2018-05-14T19:12:42.561Z,96255.03
2018-05-14T19:15:14.566Z,96259.44
2018-05-14T19:17:46.622Z,96264.42
2018-05-14T19:20:12.498Z,96265.20
2018-05-14T19:22:44.380Z,96264.43
2018-05-14T19:25:10.249Z,96276.48
2018-05-14T19:27:36.138Z,96277.24
2018-05-14T19:30:02.022Z,96278.40
2018-05-14T19:32:27.907Z,96283.20
2018-05-14T19:34:59.953Z,96281.09
2018-05-14T19:37:25.809Z,96291.04
2018-05-14T19:39:57.656Z,96287.01
2018-05-14T19:42:23.544Z,96285.25
2018-05-14T19:44:49.430Z,96287.27
2018-05-14T19:47:15.264Z,96296.55
2018-05-14T19:49:41.141Z,96310.30
2018-05-14T19:52:07.017Z,96308.16
2018-05-14T19:54:32.879Z,96307.29
2018-05-14T19:56:58.758Z,96312.70
2018-05-14T19:59:24.612Z,96311.89
2018-05-14T20:01:50.531Z,96306.30
2018-05-14T20:04:16.406Z,96309.14
2018-05-14T20:06:42.304Z,96311.02
2018-05-14T20:09:08.112Z,96316.03
2018-05-14T20:11:33.988Z,96318.91
2018-05-14T20:13:59.874Z,96315.73
2018-05-14T20:16:25.740Z,96316.23
2018-05-14T20:18:51.616Z,96317.81
2018-05-14T20:21:17.508Z,96315.88
2018-05-14T20:23:43.394Z,96319.08
2018-05-14T20:26:09.260Z,96319.09
2018-05-14T20:28:35.147Z,96318.03
2018-05-14T20:31:01.079Z,96315.17
2018-05-14T20:33:26.935Z,96318.20
2018-05-14T20:35:52.781Z,96309.81
2018-05-14T20:38:18.690Z,96307.97
2018-05-14T20:40:44.533Z,96312.86
2018-05-14T20:43:10.389Z,96311.31
2018-05-14T20:45:36.252Z,96316.19
2018-05-14T20:48:02.137Z,96317.97
2018-05-14T20:50:28.002Z,96320.34
2018-05-14T20:52:53.884Z,96321.77
2018-05-14T20:55:19.741Z,96324.39
2018-05-14T20:57:45.601Z,96322.63
2018-05-14T21:00:11.486Z,96320.13
2018-05-14T21:02:37.362Z,96326.81
2018-05-14T21:05:03.359Z,96321.94
2018-05-14T21:07:29.213Z,96321.77
2018-05-14T21:09:55.070Z,96319.94
2018-05-14T21:12:20.912Z,96315.23
2018-05-14T21:14:46.834Z,96323.36
2018-05-14T21:17:12.633Z,96321.22
2018-05-14T21:19:38.514Z,96322.67
2018-05-14T21:22:04.364Z,96309.86
2018-05-14T21:24:30.242Z,96318.42
2018-05-14T21:26:56.115Z,96319.63
2018-05-14T21:29:22.052Z,96321.69
2018-05-14T21:31:47.948Z,96331.08
2018-05-14T21:34:13.799Z,96328.45
2018-05-14T21:36:39.668Z,96329.67
2018-05-14T21:39:05.552Z,96330.48
2018-05-14T21:41:31.414Z,96325.45
2018-05-14T21:43:57.269Z,96327.01
2018-05-14T21:46:23.153Z,96329.72
2018-05-14T21:48:49.057Z,96331.39
2018-05-14T21:51:14.932Z,96334.92
2018-05-14T21:53:40.811Z,96333.55
2018-05-14T21:56:06.644Z,96336.60
2018-05-14T21:58:32.512Z,96334.25
2018-05-14T22:00:58.402Z,96331.03
2018-05-14T22:03:24.251Z,96330.61
2018-05-14T22:05:52.953Z,96322.52
2018-05-14T22:08:18.800Z,96319.97
2018-05-14T22:10:44.646Z,96325.23
2018-05-14T22:13:10.497Z,96330.94
2018-05-14T22:15:36.373Z,96322.93
2018-05-14T22:18:02.229Z,96322.53
2018-05-14T22:20:28.090Z,96319.87
2018-05-14T22:22:53.946Z,96321.63
2018-05-14T22:25:19.813Z,96323.52
2018-05-14T22:27:45.661Z,96319.31
2018-05-14T22:30:11.541Z,96319.63
2018-05-14T22:32:37.393Z,96315.67
2018-05-14T22:35:03.431Z,96317.16
2018-05-14T22:37:29.320Z,96322.09
2018-05-14T22:39:55.186Z,96320.83
2018-05-14T22:42:21.048Z,96322.73
2018-05-14T22:44:46.916Z,96314.34
2018-05-14T22:47:12.766Z,96314.00
2018-05-14T22:49:38.637Z,96321.45
2018-05-14T22:52:04.494Z,96318.98
2018-05-14T22:54:35.214Z,96323.22
2018-05-14T22:57:01.096Z,96314.92
2018-05-14T22:59:26.977Z,96313.20
2018-05-14T23:01:52.865Z,96312.50
2018-05-14T23:04:18.688Z,96308.84
2018-05-14T23:06:44.553Z,96314.51
2018-05-14T23:09:10.499Z,96310.70
2018-05-14T23:11:36.391Z,96308.27
2018-05-14T23:14:02.317Z,96313.56
2018-05-14T23:16:28.227Z,96318.44
2018-05-14T23:18:54.062Z,96319.50
2018-05-14T23:21:19.929Z,96326.23
2018-05-14T23:23:45.814Z,96321.09
2018-05-14T23:26:11.672Z,96326.35
2018-05-14T23:28:37.524Z,96323.57
2018-05-14T23:31:03.410Z,96316.78
2018-05-14T23:33:29.262Z,96325.41
2018-05-14T23:35:55.107Z,96321.42
2018-05-14T23:38:20.989Z,96326.02
2018-05-14T23:40:46.852Z,96329.88
2018-05-14T23:43:12.717Z,96337.29
2018-05-14T23:45:38.596Z,96330.53
2018-05-14T23:48:04.445Z,96333.38
2018-05-14T23:50:30.310Z,96327.64
2018-05-14T23:52:56.176Z,96334.51
2018-05-14T23:55:22.045Z,96335.97
2018-05-14T23:57:47.908Z,96337.30
